Time;durP1;ratioP1;P1;durP2;ratioP2;P2;SDS_P1;SDS_P2;PMS_P1;PMS_P2;Temp;Humidity;BMP_temperature;BMP_pressure;BME280_temperature;BME280_humidity;BME280_pressure;Samples;Min_cycle;Max_cycle;Signal;HPM_P1;HPM_P2
2023/07/01 00:02:00;;;;;;;5.45;1.55;;;19.40;67.20;;;;;;5056345;28;20475;-74
2023/07/01 00:04:27;;;;;;;4.55;1.20;;;19.40;67.20;;;;;;5055091;28;20025;-75
2023/07/01 00:06:53;;;;;;;6.68;1.48;;;19.40;67.10;;;;;;5038781;28;20032;-73
2023/07/01 00:09:19;;;;;;;8.05;1.08;;;19.40;67.00;;;;;;5055782;28;20033;-73
2023/07/01 00:11:44;;;;;;;5.18;1.42;;;19.30;66.80;;;;;;5056154;28;20029;-73
2023/07/01 00:14:10;;;;;;;4.00;1.15;;;19.40;66.60;;;;;;5038372;28;20478;-75
2023/07/01 00:16:36;;;;;;;4.95;1.20;;;19.30;66.00;;;;;;5055969;28;20048;-73
2023/07/01 00:19:01;;;;;;;3.03;0.95;;;19.30;66.00;;;;;;5038450;28;20466;-74
2023/07/01 00:21:27;;;;;;;4.43;0.98;;;19.30;65.90;;;;;;5055664;28;20060;-75
2023/07/01 00:23:53;;;;;;;4.15;1.30;;;19.30;65.60;;;;;;5054486;28;20037;-74
2023/07/01 00:26:19;;;;;;;3.97;1.50;;;19.30;65.40;;;;;;5055960;28;20112;-74
2023/07/01 00:28:44;;;;;;;6.20;1.38;;;19.30;65.20;;;;;;5055860;28;20116;-77
2023/07/01 00:31:10;;;;;;;4.63;1.25;;;19.20;64.80;;;;;;5021340;28;20056;-75
2023/07/01 00:33:35;;;;;;;5.38;1.10;;;19.20;64.80;;;;;;5055490;28;20044;-74
2023/07/01 00:36:01;;;;;;;2.80;1.00;;;19.20;64.70;;;;;;5055654;28;20059;-75
2023/07/01 00:38:26;;;;;;;7.05;1.38;;;19.20;64.60;;;;;;5054309;28;20063;-74
2023/07/01 00:40:52;;;;;;;4.13;1.10;;;19.20;64.80;;;;;;5054489;28;20033;-74
2023/07/01 00:43:18;;;;;;;6.03;1.58;;;19.20;64.80;;;;;;5055652;28;20029;-74
2023/07/01 00:45:43;;;;;;;6.93;1.67;;;19.20;64.80;;;;;;5037823;28;20151;-74
2023/07/01 00:48:37;;;;;;;4.07;1.25;;;19.20;64.90;;;;;;5020532;28;20035;-75
2023/07/01 00:51:03;;;;;;;3.90;0.98;;;19.30;65.00;;;;;;5054090;28;20041;-75
2023/07/01 00:53:28;;;;;;;4.53;1.10;;;19.20;64.90;;;;;;5055437;28;20032;-76
2023/07/01 00:55:54;;;;;;;5.30;1.23;;;19.20;64.80;;;;;;5037228;28;20033;-75
2023/07/01 00:58:20;;;;;;;7.78;1.52;;;19.20;65.00;;;;;;5053897;28;20112;-75
2023/07/01 01:00:46;;;;;;;5.22;1.17;;;19.20;65.00;;;;;;5054316;28;20037;-75
2023/07/01 01:03:30;;;;;;;4.20;1.10;;;19.20;64.90;;;;;;5053652;28;20392;-84
2023/07/01 01:06:04;;;;;;;4.13;1.20;;;19.20;64.70;;;;;;5054988;28;20495;-83
2023/07/01 01:08:57;;;;;;;5.15;1.30;;;19.20;64.60;;;;;;5052914;28;20040;-82
2023/07/01 01:11:26;;;;;;;4.03;1.23;;;19.20;64.30;;;;;;5053483;28;20021;-83
2023/07/01 01:13:53;;;;;;;8.02;1.48;;;19.10;64.40;;;;;;5054341;28;20035;-82
2023/07/01 01:16:19;;;;;;;8.00;1.35;;;19.10;64.50;;;;;;5052069;28;20572;-83
2023/07/01 01:18:46;;;;;;;3.28;0.98;;;19.10;64.70;;;;;;5054621;28;20043;-81
2023/07/01 01:21:13;;;;;;;4.75;1.08;;;19.10;65.00;;;;;;5054370;28;20032;-83
2023/07/01 01:23:51;;;;;;;4.40;1.17;;;19.10;65.20;;;;;;5054570;28;20100;-83
2023/07/01 01:26:19;;;;;;;6.90;1.23;;;19.10;65.20;;;;;;5054498;28;20043;-83
2023/07/01 01:28:46;;;;;;;7.97;1.38;;;19.10;65.20;;;;;;5054922;28;20401;-83
2023/07/01 01:31:12;;;;;;;5.22;1.30;;;19.10;65.90;;;;;;5053516;28;20031;-82
2023/07/01 01:33:40;;;;;;;5.63;1.35;;;19.10;65.30;;;;;;5054556;28;20025;-82
2023/07/01 01:36:28;;;;;;;4.72;1.45;;;19.10;65.80;;;;;;5054437;28;20025;-83
2023/07/01 01:38:58;;;;;;;4.28;1.20;;;19.10;65.30;;;;;;5054316;28;20037;-83
2023/07/01 01:41:48;;;;;;;3.78;1.15;;;19.10;65.40;;;;;;5054422;28;20100;-81
2023/07/01 01:44:22;;;;;;;5.18;1.10;;;19.10;65.70;;;;;;5050084;28;20042;-82
2023/07/01 01:46:48;;;;;;;5.00;1.35;;;19.10;65.70;;;;;;5033506;28;20021;-82
2023/07/01 01:49:14;;;;;;;4.55;1.38;;;19.10;65.80;;;;;;5033637;28;20100;-83
2023/07/01 01:51:41;;;;;;;5.25;1.23;;;19.10;66.00;;;;;;5034190;28;20418;-81
2023/07/01 01:54:10;;;;;;;3.10;1.30;;;19.10;66.10;;;;;;5033028;28;20037;-82
2023/07/01 01:56:37;;;;;;;5.18;1.20;;;19.10;66.30;;;;;;5032822;28;20084;-83
2023/07/01 01:59:03;;;;;;;4.32;1.33;;;19.10;66.60;;;;;;5032560;28;20041;-82
2023/07/01 02:01:28;;;;;;;5.25;1.20;;;19.00;67.50;;;;;;5033118;28;20037;-82
2023/07/01 02:03:55;;;;;;;6.15;1.27;;;19.00;67.00;;;;;;5016254;28;20051;-83
2023/07/01 02:06:20;;;;;;;7.30;1.20;;;19.00;67.30;;;;;;5034085;28;20025;-83
2023/07/01 02:08:46;;;;;;;5.78;1.40;;;19.00;67.50;;;;;;5033971;28;20040;-82
2023/07/01 02:11:11;;;;;;;7.85;1.30;;;19.00;68.00;;;;;;5034002;28;20037;-82
2023/07/01 02:13:37;;;;;;;7.80;1.50;;;19.00;68.00;;;;;;5032703;28;20033;-82
2023/07/01 02:16:03;;;;;;;4.13;1.38;;;19.00;69.00;;;;;;5016221;28;20026;-82
2023/07/01 02:18:28;;;;;;;5.90;1.42;;;18.90;68.40;;;;;;5032084;28;20061;-83
2023/07/01 02:20:54;;;;;;;6.47;1.25;;;19.00;69.40;;;;;;5032464;28;20029;-80
2023/07/01 02:23:19;;;;;;;4.07;1.17;;;18.90;69.40;;;;;;5033735;28;20036;-83
2023/07/01 02:25:46;;;;;;;4.00;0.88;;;18.90;69.60;;;;;;5032544;28;20090;-83
2023/07/01 02:28:13;;;;;;;3.78;1.27;;;18.90;69.60;;;;;;5033503;28;20025;-83
2023/07/01 02:30:39;;;;;;;4.47;1.38;;;18.90;70.10;;;;;;5015648;28;20084;-81
2023/07/01 02:33:04;;;;;;;3.70;1.30;;;18.90;71.40;;;;;;5033762;28;20021;-79
2023/07/01 02:35:30;;;;;;;6.78;1.33;;;18.90;72.70;;;;;;5032370;28;20033;-80
2023/07/01 02:37:56;;;;;;;5.43;1.30;;;18.80;73.40;;;;;;5032426;28;20041;-81
2023/07/01 02:40:21;;;;;;;9.20;1.55;;;18.70;74.80;;;;;;5032389;28;20497;-82
2023/07/01 02:42:47;;;;;;;6.15;1.52;;;18.70;75.50;;;;;;5033633;28;20033;-82
2023/07/01 02:45:13;;;;;;;3.10;0.90;;;18.60;75.10;;;;;;5032129;28;20036;-82
2023/07/01 02:47:39;;;;;;;5.55;1.83;;;18.60;75.40;;;;;;5033469;28;20049;-82
2023/07/01 02:50:05;;;;;;;6.82;1.17;;;18.50;75.60;;;;;;5032007;28;20501;-81
2023/07/01 02:52:30;;;;;;;5.97;1.30;;;18.50;75.60;;;;;;5032085;28;20021;-81
2023/07/01 02:54:56;;;;;;;5.85;1.40;;;18.50;75.60;;;;;;5033235;28;20041;-81
2023/07/01 02:57:22;;;;;;;7.22;1.40;;;18.50;76.50;;;;;;5015596;28;20481;-82
2023/07/01 02:59:48;;;;;;;5.00;1.58;;;18.50;77.00;;;;;;5038126;28;20129;-82
2023/07/01 03:02:14;;;;;;;4.35;1.30;;;18.40;77.40;;;;;;5041058;28;20076;-81
2023/07/01 03:04:40;;;;;;;3.33;1.00;;;18.30;77.10;;;;;;5032976;28;20057;-82
2023/07/01 03:07:05;;;;;;;5.53;1.15;;;18.40;77.30;;;;;;5033292;28;20053;-82
2023/07/01 03:09:31;;;;;;;5.55;1.13;;;18.40;77.40;;;;;;5031920;28;20478;-82
2023/07/01 03:11:57;;;;;;;6.65;1.55;;;18.40;77.90;;;;;;5035387;28;20083;-82
2023/07/01 03:14:22;;;;;;;3.45;0.93;;;18.40;79.00;;;;;;5035907;28;20045;-81
2023/07/01 03:16:49;;;;;;;4.00;1.02;;;18.30;79.00;;;;;;5035944;28;20053;-81
2023/07/01 03:19:15;;;;;;;7.45;1.75;;;18.30;79.80;;;;;;5037065;28;20060;-81
2023/07/01 03:21:41;;;;;;;6.32;1.48;;;18.30;79.80;;;;;;5041817;28;20071;-82
2023/07/01 03:24:07;;;;;;;2.85;1.30;;;18.20;80.20;;;;;;5052773;28;20036;-82
2023/07/01 03:26:32;;;;;;;3.22;0.95;;;18.20;80.50;;;;;;5055230;28;20049;-81
2023/07/01 03:28:58;;;;;;;5.43;1.30;;;18.20;80.40;;;;;;5057148;28;20033;-82
2023/07/01 03:31:24;;;;;;;3.42;1.08;;;18.20;81.00;;;;;;5051858;28;20036;-82
2023/07/01 03:33:50;;;;;;;6.97;1.10;;;18.20;81.10;;;;;;5027771;28;20116;-82
2023/07/01 03:36:16;;;;;;;4.55;1.05;;;18.10;81.40;;;;;;5037000;28;20041;-82
2023/07/01 03:38:42;;;;;;;7.65;1.83;;;18.20;82.00;;;;;;5036331;28;20490;-82
2023/07/01 03:41:08;;;;;;;5.85;1.67;;;18.10;82.60;;;;;;5055159;28;20044;-83
2023/07/01 03:43:34;;;;;;;4.85;1.85;;;18.10;83.30;;;;;;5038586;28;20040;-81
2023/07/01 03:45:59;;;;;;;4.20;1.17;;;18.00;83.90;;;;;;5054921;28;20048;-82
2023/07/01 03:48:25;;;;;;;3.78;1.55;;;18.00;83.80;;;;;;5056420;28;20057;-82
2023/07/01 03:50:51;;;;;;;4.43;1.38;;;18.00;84.10;;;;;;5056443;28;20060;-82
2023/07/01 03:53:17;;;;;;;4.97;1.45;;;18.00;84.60;;;;;;5055205;28;20059;-81
2023/07/01 03:55:43;;;;;;;5.13;1.20;;;17.90;85.00;;;;;;5056317;28;20037;-82
2023/07/01 03:58:09;;;;;;;7.68;2.15;;;17.90;85.50;;;;;;5053189;28;22902;-81
2023/07/01 04:00:35;;;;;;;5.47;1.30;;;17.90;85.70;;;;;;5048706;28;20074;-81
2023/07/01 04:03:05;;;;;;;3.28;1.30;;;17.90;85.80;;;;;;5056122;28;20033;-82
2023/07/01 04:05:34;;;;;;;3.70;0.98;;;17.90;86.00;;;;;;5055916;28;20029;-82
2023/07/01 04:08:00;;;;;;;4.25;1.10;;;17.90;86.10;;;;;;5054665;28;20048;-81
2023/07/01 04:10:26;;;;;;;4.75;1.50;;;17.90;86.40;;;;;;5056211;28;20028;-82
2023/07/01 04:12:51;;;;;;;3.95;1.50;;;17.90;86.30;;;;;;5052921;28;20031;-83
2023/07/01 04:15:17;;;;;;;7.18;1.70;;;17.90;87.10;;;;;;5054858;28;20369;-81
2023/07/01 04:17:45;;;;;;;4.93;1.42;;;17.80;87.40;;;;;;5055644;28;20096;-82
2023/07/01 04:20:13;;;;;;;5.40;1.45;;;17.80;87.60;;;;;;5056195;28;20139;-82
2023/07/01 04:22:39;;;;;;;6.03;1.40;;;17.80;88.10;;;;;;5055672;28;20028;-82
2023/07/01 04:25:06;;;;;;;3.80;1.10;;;17.80;88.50;;;;;;5055737;28;20029;-81
2023/07/01 04:27:32;;;;;;;5.28;1.50;;;17.80;88.80;;;;;;5038036;28;20116;-81
2023/07/01 04:29:58;;;;;;;4.95;1.67;;;17.80;89.40;;;;;;5055505;28;20021;-82
2023/07/01 04:32:24;;;;;;;6.53;1.30;;;17.80;90.20;;;;;;5055973;28;20492;-80
2023/07/01 04:34:49;;;;;;;2.72;1.27;;;17.70;90.00;;;;;;5054459;28;20041;-81
2023/07/01 04:37:15;;;;;;;3.53;1.40;;;17.70;90.20;;;;;;5054342;28;20070;-83
2023/07/01 04:39:41;;;;;;;4.72;1.40;;;17.70;90.30;;;;;;5052525;28;20040;-81
2023/07/01 04:42:07;;;;;;;4.68;1.30;;;17.70;90.80;;;;;;5051177;28;20034;-81
2023/07/01 04:44:32;;;;;;;3.63;1.33;;;17.60;90.80;;;;;;5035602;28;20111;-81
2023/07/01 04:46:58;;;;;;;4.13;1.20;;;17.60;91.20;;;;;;5041156;28;20025;-82
2023/07/01 04:49:24;;;;;;;7.90;1.73;;;17.60;91.70;;;;;;5050670;28;20049;-82
2023/07/01 04:51:51;;;;;;;5.38;1.60;;;17.50;92.20;;;;;;5035328;28;20040;-82
2023/07/01 04:54:17;;;;;;;4.18;1.20;;;17.50;91.90;;;;;;5035568;28;20163;-84
2023/07/01 04:56:42;;;;;;;2.85;1.05;;;17.50;92.30;;;;;;5034308;28;20106;-83
2023/07/01 04:59:08;;;;;;;2.80;1.15;;;17.50;92.60;;;;;;5035638;28;20049;-83
2023/07/01 05:01:33;;;;;;;4.22;1.02;;;17.40;92.50;;;;;;5034992;28;20025;-82
2023/07/01 05:03:59;;;;;;;2.67;1.23;;;17.40;93.50;;;;;;5034154;28;20030;-82
2023/07/01 05:06:25;;;;;;;6.07;1.77;;;17.40;93.90;;;;;;5017633;28;20096;-83
2023/07/01 05:08:51;;;;;;;4.57;1.23;;;17.30;94.10;;;;;;5035244;28;20117;-82
2023/07/01 05:11:17;;;;;;;4.93;1.52;;;17.40;94.50;;;;;;5034225;28;20398;-82
2023/07/01 05:13:44;;;;;;;4.18;1.58;;;17.30;94.70;;;;;;5038297;28;20129;-83
2023/07/01 05:16:09;;;;;;;4.15;1.05;;;17.30;94.80;;;;;;5054888;28;20021;-83
2023/07/01 05:18:35;;;;;;;9.93;1.95;;;17.30;95.00;;;;;;5053680;28;20025;-83
2023/07/01 05:21:00;;;;;;;3.33;1.15;;;17.30;95.40;;;;;;5048270;28;20033;-82
2023/07/01 05:23:26;;;;;;;4.38;1.25;;;17.30;95.80;;;;;;5051827;28;20109;-82
2023/07/01 05:25:53;;;;;;;2.67;1.10;;;17.30;95.90;;;;;;5040099;28;20079;-83
2023/07/01 05:28:18;;;;;;;3.03;1.23;;;17.30;96.40;;;;;;5051237;28;20385;-83
2023/07/01 05:30:46;;;;;;;3.47;1.17;;;17.30;96.40;;;;;;5046834;28;20034;-82
2023/07/01 05:33:12;;;;;;;4.25;1.02;;;17.20;96.90;;;;;;5048377;28;20044;-81
2023/07/01 05:35:38;;;;;;;3.05;1.48;;;17.20;96.90;;;;;;5033316;28;20022;-82
2023/07/01 05:38:10;;;;;;;3.58;1.42;;;17.20;97.40;;;;;;5053900;28;20024;-81
2023/07/01 05:40:36;;;;;;;4.25;1.30;;;17.20;97.40;;;;;;5054053;28;20037;-82
2023/07/01 05:43:02;;;;;;;3.55;1.38;;;17.20;97.70;;;;;;5052610;28;20116;-83
2023/07/01 05:45:28;;;;;;;3.30;1.38;;;17.20;97.60;;;;;;5052797;28;20539;-81
2023/07/01 05:47:54;;;;;;;2.72;1.10;;;17.20;98.30;;;;;;5054187;28;20025;-82
2023/07/01 05:50:19;;;;;;;3.35;1.27;;;17.20;98.40;;;;;;5053991;28;20040;-82
2023/07/01 05:52:45;;;;;;;5.03;1.38;;;17.20;98.60;;;;;;5053992;28;20087;-82
2023/07/01 05:55:11;;;;;;;2.65;1.20;;;17.20;98.60;;;;;;5036634;28;20057;-81
2023/07/01 05:57:36;;;;;;;3.63;1.45;;;17.20;99.00;;;;;;5054219;28;20040;-82
2023/07/01 06:00:05;;;;;;;3.22;1.30;;;17.20;99.40;;;;;;5053450;28;20033;-82
2023/07/01 06:02:31;;;;;;;4.20;1.20;;;17.20;99.30;;;;;;5036751;28;20388;-83
2023/07/01 06:04:56;;;;;;;5.43;1.38;;;17.20;99.20;;;;;;5052990;28;20037;-82
2023/07/01 06:07:22;;;;;;;4.00;1.35;;;17.20;99.20;;;;;;5052766;28;20139;-82
2023/07/01 06:09:49;;;;;;;4.43;1.55;;;17.20;99.70;;;;;;5052530;28;20067;-83
2023/07/01 06:12:15;;;;;;;2.85;1.27;;;17.20;99.70;;;;;;5052769;28;20465;-82
2023/07/01 06:14:41;;;;;;;2.33;1.05;;;17.20;99.70;;;;;;5053799;28;20112;-83
2023/07/01 06:17:06;;;;;;;3.30;1.15;;;17.30;99.70;;;;;;5052901;28;20537;-83
2023/07/01 06:19:32;;;;;;;3.30;1.00;;;17.30;99.80;;;;;;5053992;28;20118;-81
2023/07/01 06:21:58;;;;;;;3.33;1.20;;;17.30;99.90;;;;;;5052518;28;20132;-82
2023/07/01 06:24:23;;;;;;;1.65;0.85;;;17.40;99.90;;;;;;5052594;28;20393;-82
2023/07/01 06:26:49;;;;;;;5.05;1.30;;;17.40;99.80;;;;;;5052474;28;20037;-83
2023/07/01 06:29:15;;;;;;;4.35;1.50;;;17.40;99.80;;;;;;5052264;28;20033;-82
2023/07/01 06:31:41;;;;;;;2.35;1.05;;;17.50;99.90;;;;;;5053582;28;20025;-82
2023/07/01 06:34:19;;;;;;;3.35;1.30;;;17.50;99.80;;;;;;5052308;28;20037;-82
2023/07/01 06:36:45;;;;;;;3.80;1.25;;;17.50;99.80;;;;;;5053580;28;20025;-81
2023/07/01 06:39:13;;;;;;;2.45;1.13;;;17.50;99.90;;;;;;5035830;28;20151;-81
2023/07/01 06:41:39;;;;;;;2.28;1.17;;;17.60;99.90;;;;;;5052463;28;20083;-81
2023/07/01 06:44:04;;;;;;;2.42;1.08;;;17.60;99.90;;;;;;5052099;28;20029;-82
2023/07/01 06:46:30;;;;;;;3.00;1.20;;;17.60;99.90;;;;;;5029205;28;20531;-81
2023/07/01 06:48:56;;;;;;;2.45;1.05;;;17.60;99.90;;;;;;5044742;28;20045;-83
2023/07/01 06:51:21;;;;;;;2.28;1.15;;;17.60;99.90;;;;;;5030794;28;20119;-82
2023/07/01 06:53:47;;;;;;;3.67;1.42;;;17.60;99.90;;;;;;5045976;28;20029;-82
2023/07/01 06:56:13;;;;;;;2.90;1.10;;;17.60;99.90;;;;;;5035251;28;20037;-82
2023/07/01 06:58:40;;;;;;;2.55;1.05;;;17.60;99.90;;;;;;5051950;28;20033;-81
2023/07/01 07:01:06;;;;;;;3.85;0.90;;;17.60;99.90;;;;;;5052926;28;20033;-83
2023/07/01 07:03:33;;;;;;;2.97;1.10;;;17.70;99.90;;;;;;5050479;28;20032;-82
2023/07/01 07:05:59;;;;;;;2.17;0.82;;;17.70;99.90;;;;;;5048856;28;20355;-75
2023/07/01 07:08:24;;;;;;;1.60;0.82;;;17.70;99.90;;;;;;5031516;28;20022;-81
2023/07/01 07:10:50;;;;;;;2.33;0.90;;;17.70;99.90;;;;;;5031896;28;20466;-82
2023/07/01 07:13:17;;;;;;;4.22;1.17;;;17.80;99.90;;;;;;5032806;28;20046;-83
2023/07/01 07:15:43;;;;;;;1.63;0.82;;;17.80;99.90;;;;;;5031814;28;20022;-82
2023/07/01 07:18:10;;;;;;;2.08;0.90;;;17.80;99.90;;;;;;5032073;28;20033;-83
2023/07/01 07:20:37;;;;;;;3.42;1.10;;;17.80;99.90;;;;;;5031790;28;20032;-83
2023/07/01 07:23:05;;;;;;;4.70;1.08;;;17.80;99.90;;;;;;5015623;28;20389;-82
2023/07/01 07:25:34;;;;;;;2.97;0.90;;;17.80;99.90;;;;;;5031837;28;20087;-81
2023/07/01 07:28:01;;;;;;;3.28;0.90;;;17.80;99.90;;;;;;5031822;28;20043;-83
2023/07/01 07:30:27;;;;;;;3.58;1.00;;;17.80;99.90;;;;;;5031587;28;20056;-83
2023/07/01 07:32:52;;;;;;;3.58;1.10;;;17.90;99.90;;;;;;5038384;28;20037;-83
2023/07/01 07:35:18;;;;;;;2.92;0.82;;;17.90;99.90;;;;;;5052851;28;20045;-84
2023/07/01 07:37:44;;;;;;;2.03;1.17;;;17.90;99.90;;;;;;5036677;28;20470;-84
2023/07/01 07:40:10;;;;;;;2.28;1.13;;;17.90;99.90;;;;;;5038346;28;20055;-85
2023/07/01 07:42:36;;;;;;;1.92;0.80;;;17.90;99.90;;;;;;5050997;28;20064;-82
2023/07/01 07:45:04;;;;;;;3.58;0.90;;;18.00;99.90;;;;;;5051604;28;20489;-82
2023/07/01 07:47:29;;;;;;;1.88;0.80;;;18.10;99.90;;;;;;5052972;28;20033;-81
2023/07/01 07:49:55;;;;;;;1.63;0.70;;;18.00;99.90;;;;;;5053948;28;20068;-82
2023/07/01 07:52:21;;;;;;;1.83;0.80;;;18.10;99.90;;;;;;5046809;28;20038;-84
2023/07/01 07:54:47;;;;;;;1.80;0.80;;;18.10;99.90;;;;;;5045730;28;20016;-81
2023/07/01 07:57:13;;;;;;;2.53;0.88;;;18.10;99.90;;;;;;5055325;28;20112;-83
2023/07/01 07:59:42;;;;;;;2.67;0.80;;;18.10;99.90;;;;;;5057206;28;20037;-83
2023/07/01 08:02:08;;;;;;;1.77;0.90;;;18.20;99.90;;;;;;5056272;28;20035;-76
2023/07/01 08:04:35;;;;;;;1.63;0.80;;;18.20;99.90;;;;;;5051314;28;20112;-75
2023/07/01 08:07:01;;;;;;;2.35;0.98;;;18.20;99.90;;;;;;5050468;28;20052;-75
2023/07/01 08:09:26;;;;;;;2.25;1.05;;;18.20;99.90;;;;;;5018179;28;20424;-75
2023/07/01 08:11:52;;;;;;;2.50;0.90;;;18.20;99.90;;;;;;5034772;28;20101;-76
2023/07/01 08:14:21;;;;;;;2.60;1.05;;;18.20;99.90;;;;;;5034667;28;20083;-77
2023/07/01 08:16:47;;;;;;;2.88;1.05;;;18.20;99.90;;;;;;5017291;28;20562;-77
2023/07/01 08:19:12;;;;;;;2.35;0.88;;;18.20;99.90;;;;;;5034435;28;20030;-78
2023/07/01 08:21:38;;;;;;;2.28;0.80;;;18.20;99.90;;;;;;5038971;28;20087;-77
2023/07/01 08:24:08;;;;;;;2.05;0.90;;;18.30;99.90;;;;;;5046731;28;20020;-76
2023/07/01 08:26:34;;;;;;;2.30;1.00;;;18.30;99.90;;;;;;5044862;28;20042;-77
2023/07/01 08:28:59;;;;;;;1.52;0.80;;;18.40;99.90;;;;;;5025140;28;20124;-78
2023/07/01 08:31:25;;;;;;;2.20;0.75;;;18.40;99.90;;;;;;5041028;28;20534;-78
2023/07/01 08:33:50;;;;;;;2.22;1.00;;;18.40;99.90;;;;;;5039597;28;20034;-79
2023/07/01 08:36:16;;;;;;;2.45;0.70;;;18.40;99.90;;;;;;5034555;28;20504;-76
2023/07/01 08:38:42;;;;;;;1.77;0.82;;;18.40;99.90;;;;;;5035710;28;20037;-76
2023/07/01 08:41:12;;;;;;;1.70;1.00;;;18.40;99.90;;;;;;5017854;28;20021;-75
2023/07/01 08:43:39;;;;;;;2.63;0.93;;;18.40;99.90;;;;;;5034459;28;20489;-82
2023/07/01 08:46:09;;;;;;;1.77;0.98;;;18.40;99.90;;;;;;5036249;28;20025;-83
2023/07/01 08:48:37;;;;;;;2.15;1.00;;;18.40;99.90;;;;;;5034555;28;20394;-80
2023/07/01 08:51:05;;;;;;;2.05;0.80;;;18.40;99.90;;;;;;5035611;28;20036;-84
2023/07/01 08:53:32;;;;;;;2.15;0.82;;;18.30;99.90;;;;;;5035609;28;20481;-80
2023/07/01 08:55:59;;;;;;;1.42;0.70;;;18.30;99.90;;;;;;5035711;28;20030;-81
2023/07/01 08:58:26;;;;;;;2.38;1.00;;;18.30;99.90;;;;;;5035751;28;20492;-83
2023/07/01 09:00:52;;;;;;;1.65;1.00;;;18.30;99.90;;;;;;5036899;28;20029;-79
2023/07/01 09:03:17;;;;;;;3.88;0.85;;;18.30;99.90;;;;;;5029393;28;20060;-81
2023/07/01 09:05:43;;;;;;;2.28;0.80;;;18.30;99.90;;;;;;5055199;28;20508;-81
2023/07/01 09:08:09;;;;;;;3.03;1.00;;;18.30;99.90;;;;;;5055222;28;20066;-82
2023/07/01 09:10:35;;;;;;;2.22;1.08;;;18.40;99.90;;;;;;5053998;28;20120;-82
2023/07/01 09:13:13;;;;;;;1.83;1.25;;;18.40;99.90;;;;;;5053905;28;20040;-82
2023/07/01 09:15:43;;;;;;;2.13;1.13;;;18.50;99.90;;;;;;5037642;28;20013;-80
2023/07/01 09:18:25;;;;;;;2.55;1.38;;;18.50;99.90;;;;;;5054319;28;20036;-81
2023/07/01 09:20:52;;;;;;;2.60;1.20;;;18.60;99.90;;;;;;5051531;28;20642;-82
2023/07/01 09:23:29;;;;;;;3.67;1.58;;;18.60;99.90;;;;;;5034273;28;20132;-82
2023/07/01 09:26:08;;;;;;;2.17;1.35;;;18.50;99.90;;;;;;5045276;28;20116;-82
2023/07/01 09:28:34;;;;;;;2.38;1.45;;;18.60;99.90;;;;;;5053276;28;20086;-86
2023/07/01 09:31:02;;;;;;;2.42;1.20;;;18.60;99.90;;;;;;5053330;28;20029;-82
2023/07/01 09:33:29;;;;;;;3.22;1.65;;;18.60;99.90;;;;;;5020543;28;20036;-80
2023/07/01 09:36:01;;;;;;;2.35;1.40;;;18.70;99.90;;;;;;5033047;28;20030;-83
2023/07/01 09:38:27;;;;;;;2.50;1.30;;;18.70;99.90;;;;;;5036235;28;20025;-81
2023/07/01 09:40:52;;;;;;;2.60;1.45;;;18.70;99.90;;;;;;5054274;28;20435;-84
2023/07/01 09:43:21;;;;;;;2.30;1.17;;;18.70;99.90;;;;;;5053204;28;20025;-81
2023/07/01 09:45:57;;;;;;;2.10;1.27;;;18.70;99.90;;;;;;5053322;28;20041;-83
2023/07/01 09:48:23;;;;;;;2.33;1.52;;;18.70;99.90;;;;;;5054669;28;20023;-80
2023/07/01 09:50:50;;;;;;;2.40;1.30;;;18.70;99.90;;;;;;5074246;28;20052;-81
2023/07/01 09:53:24;;;;;;;5.03;1.23;;;18.70;99.90;;;;;;5055477;28;20048;-80
2023/07/01 09:55:50;;;;;;;2.95;1.70;;;18.70;99.90;;;;;;5054234;28;20028;-79
2023/07/01 09:58:16;;;;;;;3.33;1.58;;;18.80;99.90;;;;;;5054458;28;20017;-82
2023/07/01 10:00:42;;;;;;;4.45;1.55;;;18.80;99.90;;;;;;5035851;28;20040;-79
2023/07/01 10:03:08;;;;;;;2.15;1.25;;;18.80;99.90;;;;;;5069820;28;20029;-80
2023/07/01 10:05:34;;;;;;;3.08;1.70;;;18.90;99.90;;;;;;5074257;28;20032;-80
2023/07/01 10:08:00;;;;;;;3.78;1.55;;;18.90;99.90;;;;;;5074304;28;20052;-80
2023/07/01 10:10:26;;;;;;;3.03;1.83;;;19.00;99.90;;;;;;5072958;28;20436;-81
2023/07/01 10:12:54;;;;;;;3.08;1.60;;;19.00;99.90;;;;;;5074353;28;20103;-82
2023/07/01 10:15:24;;;;;;;3.67;1.77;;;19.00;99.90;;;;;;5055933;28;20021;-77
2023/07/01 10:17:52;;;;;;;2.47;1.27;;;19.00;99.90;;;;;;5052326;28;20469;-80
2023/07/01 10:20:32;;;;;;;2.55;1.42;;;19.00;99.90;;;;;;5053265;28;20025;-81
2023/07/01 10:23:03;;;;;;;2.50;1.75;;;18.90;99.90;;;;;;5052235;28;20416;-83
2023/07/01 10:25:30;;;;;;;3.75;2.10;;;18.90;99.90;;;;;;5052881;28;20059;-80
2023/07/01 10:28:02;;;;;;;2.63;1.80;;;18.90;99.90;;;;;;5053674;28;20452;-82
2023/07/01 10:30:46;;;;;;;3.50;1.40;;;19.00;99.90;;;;;;5070113;28;20039;-83
2023/07/01 10:33:27;;;;;;;;;;;19.00;99.90;;;;;;5074664;28;20020;-85
2023/07/01 10:36:07;;;;;;;3.38;1.58;;;19.00;99.90;;;;;;5052918;28;19904;-83
2023/07/01 10:38:34;;;;;;;3.00;1.67;;;19.10;99.90;;;;;;5052430;28;20539;-84
2023/07/01 10:41:00;;;;;;;3.60;1.77;;;19.10;99.90;;;;;;5074970;28;20024;-83
2023/07/01 10:43:26;;;;;;;2.55;1.65;;;19.10;99.90;;;;;;5075054;28;20453;-84
2023/07/01 10:46:20;;;;;;;3.13;1.98;;;19.20;99.90;;;;;;5073248;28;20047;-83
2023/07/01 10:49:08;;;;;;;3.25;1.63;;;19.20;99.90;;;;;;5073912;28;20035;-83
2023/07/01 10:51:46;;;;;;;4.80;1.90;;;19.30;99.90;;;;;;5073413;28;20043;-85
2023/07/01 10:54:11;;;;;;;3.63;1.80;;;19.30;99.90;;;;;;5072840;28;20469;-83
2023/07/01 10:56:39;;;;;;;3.50;1.80;;;19.40;99.90;;;;;;5055537;28;20020;-83
2023/07/01 10:59:17;;;;;;;3.58;2.30;;;19.40;99.90;;;;;;5072493;28;20029;-83
2023/07/01 11:01:50;;;;;;;4.13;1.90;;;19.50;99.90;;;;;;5072025;28;20025;-82
2023/07/01 11:04:18;;;;;;;4.07;2.13;;;19.60;99.90;;;;;;5072347;28;20029;-81
2023/07/01 11:06:48;;;;;;;4.38;2.33;;;19.60;99.90;;;;;;5074444;28;20028;-82
2023/07/01 11:09:14;;;;;;;3.40;2.10;;;19.70;99.90;;;;;;5072785;28;20029;-82
2023/07/01 11:11:40;;;;;;;3.15;1.90;;;19.80;99.90;;;;;;5072979;28;20104;-81
2023/07/01 11:14:09;;;;;;;5.22;2.47;;;19.90;99.90;;;;;;5070294;28;20024;-82
2023/07/01 11:16:36;;;;;;;4.50;2.20;;;20.00;99.90;;;;;;5053509;28;20098;-82
2023/07/01 11:19:09;;;;;;;4.38;2.60;;;20.10;99.90;;;;;;5056516;28;20477;-82
2023/07/01 11:21:36;;;;;;;4.37;2.47;;;20.20;99.90;;;;;;5073654;28;20048;-83
2023/07/01 11:24:05;;;;;;;4.10;2.30;;;20.20;99.90;;;;;;5056587;28;20048;-80
2023/07/01 11:26:34;;;;;;;4.10;2.80;;;20.30;99.90;;;;;;5052372;28;20025;-82
2023/07/01 11:29:00;;;;;;;3.97;2.58;;;20.30;99.90;;;;;;5055565;28;20119;-83
2023/07/01 11:31:32;;;;;;;3.35;2.00;;;20.40;99.90;;;;;;5048668;28;20017;-82
2023/07/01 11:33:59;;;;;;;4.43;2.45;;;20.60;99.90;;;;;;5052919;28;20466;-82
2023/07/01 11:36:41;;;;;;;4.97;2.05;;;20.80;99.90;;;;;;5036735;28;20480;-81
2023/07/01 11:39:09;;;;;;;3.55;2.30;;;20.90;99.90;;;;;;5038162;28;20037;-83
2023/07/01 11:41:37;;;;;;;4.13;2.83;;;21.00;99.90;;;;;;5036273;28;20025;-82
2023/07/01 11:44:05;;;;;;;4.30;2.65;;;21.00;99.90;;;;;;5035919;28;20053;-84
2023/07/01 11:46:37;;;;;;;5.68;3.28;;;21.00;99.90;;;;;;5055968;28;20476;-84
2023/07/01 11:49:25;;;;;;;5.32;2.70;;;20.90;99.90;;;;;;5056488;28;20041;-83
2023/07/01 11:52:00;;;;;;;5.32;3.10;;;20.90;99.90;;;;;;5066284;28;20455;-83
2023/07/01 11:54:47;;;;;;;4.70;3.78;;;20.80;99.90;;;;;;5057318;28;20029;-82
2023/07/01 11:57:16;;;;;;;4.95;3.42;;;20.80;99.90;;;;;;5058349;28;20131;-82
2023/07/01 11:59:47;;;;;;;6.70;3.88;;;20.90;99.90;;;;;;5058969;28;20033;-82
2023/07/01 12:02:14;;;;;;;4.93;3.47;;;20.80;99.90;;;;;;5057965;28;20036;-83
2023/07/01 12:04:40;;;;;;;4.88;3.80;;;20.90;99.90;;;;;;5041718;28;20086;-82
2023/07/01 12:07:06;;;;;;;5.20;2.85;;;21.00;99.90;;;;;;5053692;28;20467;-83
2023/07/01 12:09:31;;;;;;;6.05;3.50;;;21.20;99.90;;;;;;5035462;28;20086;-83
2023/07/01 12:11:57;;;;;;;4.75;2.63;;;21.60;99.90;;;;;;5035981;28;20029;-82
2023/07/01 12:14:24;;;;;;;4.50;3.03;;;21.90;99.90;;;;;;5018934;28;20487;-83
2023/07/01 12:16:51;;;;;;;3.88;2.63;;;22.10;99.40;;;;;;5018124;28;20036;-77
2023/07/01 12:19:20;;;;;;;4.65;3.00;;;22.20;98.20;;;;;;5035381;28;20036;-77
2023/07/01 12:21:47;;;;;;;5.75;2.78;;;22.20;97.60;;;;;;5035635;28;20029;-77
2023/07/01 12:24:25;;;;;;;4.75;2.80;;;22.10;97.30;;;;;;5034591;28;20037;-79
2023/07/01 12:26:56;;;;;;;4.63;2.88;;;21.90;97.50;;;;;;5034261;28;20112;-78
2023/07/01 12:29:23;;;;;;;4.30;2.28;;;21.60;98.00;;;;;;5034481;28;20084;-76
2023/07/01 12:31:49;;;;;;;3.28;2.15;;;21.40;98.30;;;;;;5035843;28;20470;-76
2023/07/01 12:34:15;;;;;;;3.55;2.10;;;21.10;98.30;;;;;;5017925;28;20025;-77
2023/07/01 12:36:44;;;;;;;3.75;2.17;;;20.90;98.60;;;;;;5034527;28;20425;-77
2023/07/01 12:39:10;;;;;;;3.38;2.60;;;20.90;99.20;;;;;;5035502;28;20108;-77
2023/07/01 12:41:37;;;;;;;4.07;2.25;;;20.80;99.60;;;;;;5034264;28;20025;-77
2023/07/01 12:44:04;;;;;;;2.95;2.33;;;20.80;99.80;;;;;;5033900;28;20120;-77
2023/07/01 12:46:30;;;;;;;3.80;2.72;;;20.80;99.90;;;;;;5033404;28;20071;-79
2023/07/01 12:48:56;;;;;;;4.22;2.70;;;20.70;99.90;;;;;;5031838;28;20132;-77
2023/07/01 12:51:22;;;;;;;5.32;3.70;;;20.70;99.90;;;;;;5015571;28;20172;-76